Time;durP1;ratioP1;P1;durP2;ratioP2;P2;SDS_P1;SDS_P2;PMS_P1;PMS_P2;Temp;Humidity;BMP_temperature;BMP_pressure;BME280_temperature;BME280_humidity;BME280_pressure;Samples;Min_cycle;Max_cycle;Signal;HPM_P1;HPM_P2
2023/05/22 00:01:01;;;;;;;;;;;;;;;20.92;70.51;101644.28;20810463;28;19964;-56
2023/05/22 00:11:22;;;;;;;;;;;;;;;20.89;70.87;101645.31;20797665;28;20319;-56
2023/05/22 00:21:45;;;;;;;;;;;;;;;20.88;69.85;101635.72;20803686;28;19936;-57
2023/05/22 00:32:07;;;;;;;;;;;;;;;20.76;70.95;101627.72;20806678;28;19925;-57
2023/05/22 00:42:28;;;;;;;;;;;;;;;20.69;70.28;101616.72;20798274;28;19929;-56
2023/05/22 00:52:50;;;;;;;;;;;;;;;20.63;69.88;101605.72;20789573;28;20022;-57
2023/05/22 01:03:11;;;;;;;;;;;;;;;20.56;70.71;101599.97;20792559;28;20391;-55
2023/05/22 01:13:38;;;;;;;;;;;;;;;20.44;70.86;101589.31;20792698;28;20027;-56
2023/05/22 01:24:19;;;;;;;;;;;;;;;20.35;70.45;101588.06;20779564;28;19933;-56
2023/05/22 01:34:43;;;;;;;;;;;;;;;20.20;73.03;101594.22;20790011;28;19929;-56
2023/05/22 01:45:04;;;;;;;;;;;;;;;20.17;71.13;101591.78;20786747;28;19943;-56
2023/05/22 01:55:35;;;;;;;;;;;;;;;20.06;70.98;101575.72;20810685;28;19925;-56
2023/05/22 02:05:58;;;;;;;;;;;;;;;19.99;71.09;101566.50;20810106;28;19929;-56
2023/05/22 02:16:21;;;;;;;;;;;;;;;19.86;70.53;101565.50;20795800;28;19933;-57
2023/05/22 02:26:42;;;;;;;;;;;;;;;19.74;71.20;101564.41;20789396;28;19926;-57
2023/05/22 02:37:04;;;;;;;;;;;;;;;19.66;71.36;101552.66;20799326;28;19937;-56
2023/05/22 02:47:25;;;;;;;;;;;;;;;19.58;71.70;101552.22;20809826;28;20032;-56
2023/05/22 02:57:47;;;;;;;;;;;;;;;19.56;71.22;101568.06;20807924;28;19939;-56
2023/05/22 03:08:08;;;;;;;;;;;;;;;19.47;71.75;101563.31;20803325;28;19933;-57
2023/05/22 03:18:30;;;;;;;;;;;;;;;19.41;71.42;101549.69;20807933;28;19925;-56
2023/05/22 03:28:51;;;;;;;;;;;;;;;19.36;71.84;101543.84;20803117;28;20391;-56
2023/05/22 03:39:13;;;;;;;;;;;;;;;19.34;71.90;101550.97;20810062;28;20357;-56
2023/05/22 03:49:34;;;;;;;;;;;;;;;19.30;71.66;101546.78;20801991;28;19929;-57
2023/05/22 03:59:56;;;;;;;;;;;;;;;19.30;71.03;101544.97;20807395;28;19932;-57
2023/05/22 04:10:21;;;;;;;;;;;;;;;19.28;72.18;101556.50;20800433;28;19925;-57
2023/05/22 04:20:42;;;;;;;;;;;;;;;19.22;71.36;101555.06;20800268;28;20032;-57
2023/05/22 04:31:05;;;;;;;;;;;;;;;19.25;71.75;101548.78;20812960;28;19929;-57
2023/05/22 04:41:27;;;;;;;;;;;;;;;19.25;71.85;101540.91;20803487;28;19925;-57
2023/05/22 04:51:49;;;;;;;;;;;;;;;19.23;71.66;101537.56;20799664;28;20264;-57
2023/05/22 05:02:10;;;;;;;;;;;;;;;19.21;70.85;101534.16;20793163;28;19929;-56
2023/05/22 05:12:32;;;;;;;;;;;;;;;19.26;71.58;101537.38;20803514;28;20233;-57
2023/05/22 05:22:53;;;;;;;;;;;;;;;19.31;71.92;101548.47;20801775;28;19925;-57
2023/05/22 05:33:14;;;;;;;;;;;;;;;19.36;72.16;101564.84;20804922;28;20300;-55
2023/05/22 05:43:36;;;;;;;;;;;;;;;19.37;71.24;101584.91;20790022;28;19925;-56
2023/05/22 05:53:57;;;;;;;;;;;;;;;19.34;72.39;101587.72;20808111;28;19924;-56
2023/05/22 06:04:19;;;;;;;;;;;;;;;19.33;73.40;101588.63;20814877;28;20460;-56
2023/05/22 06:14:40;;;;;;;;;;;;;;;19.29;72.38;101601.06;20799205;28;19925;-55
2023/05/22 06:25:02;;;;;;;;;;;;;;;18.80;78.40;101584.44;20808034;28;20024;-53
2023/05/22 06:35:24;;;;;;;;;;;;;;;18.49;84.56;101586.94;20805258;28;20038;-53
2023/05/22 06:45:45;;;;;;;;;;;;;;;18.33;81.35;101535.31;20794006;28;20007;-55
2023/05/22 06:56:07;;;;;;;;;;;;;;;18.10;84.88;101570.53;20805767;28;19935;-55
2023/05/22 07:06:31;;;;;;;;;;;;;;;17.96;84.54;101664.66;20805813;28;20020;-55
2023/05/22 07:16:52;;;;;;;;;;;;;;;17.81;84.28;101640.03;20804940;28;19933;-56
2023/05/22 07:27:14;;;;;;;;;;;;;;;17.73;88.25;101626.44;20791916;28;19929;-57
2023/05/22 07:37:36;;;;;;;;;;;;;;;17.67;86.90;101595.28;20791953;28;19935;-56
2023/05/22 07:47:58;;;;;;;;;;;;;;;17.51;86.97;101514.94;20803382;28;19961;-56
2023/05/22 07:58:19;;;;;;;;;;;;;;;17.37;86.49;101502.50;20801584;28;19994;-55
2023/05/22 08:08:41;;;;;;;;;;;;;;;17.46;89.01;101523.00;20804238;28;19943;-57
2023/05/22 08:19:02;;;;;;;;;;;;;;;17.50;89.00;101549.91;20798007;28;19925;-56
2023/05/22 08:29:24;;;;;;;;;;;;;;;17.63;85.70;101598.16;20788063;28;20417;-55
2023/05/22 08:39:45;;;;;;;;;;;;;;;17.66;87.50;101593.63;20800254;28;19952;-55
2023/05/22 08:50:08;;;;;;;;;;;;;;;17.78;87.73;101582.53;20801222;28;19932;-57
2023/05/22 09:00:29;;;;;;;;;;;;;;;17.74;86.98;101565.31;20804122;28;19977;-56
2023/05/22 09:10:53;;;;;;;;;;;;;;;17.76;88.70;101596.66;20794026;28;19926;-55
2023/05/22 09:21:15;;;;;;;;;;;;;;;17.69;87.42;101603.94;20800261;28;19956;-55
2023/05/22 09:31:50;;;;;;;;;;;;;;;17.68;86.87;101627.56;20792769;28;19987;-56
2023/05/22 09:42:13;;;;;;;;;;;;;;;17.77;87.39;101612.28;20803425;28;19929;-57
2023/05/22 09:52:36;;;;;;;;;;;;;;;17.82;89.95;101614.66;20795176;28;19936;-56
2023/05/22 10:03:02;;;;;;;;;;;;;;;17.86;88.81;101600.53;20784890;28;19937;-57
2023/05/22 10:13:25;;;;;;;;;;;;;;;17.94;87.89;101593.16;20788562;28;20381;-57
2023/05/22 10:23:47;;;;;;;;;;;;;;;18.04;90.72;101581.28;20796657;28;19925;-57
2023/05/22 10:34:10;;;;;;;;;;;;;;;18.04;90.06;101561.19;20801208;28;21090;-57
2023/05/22 10:44:32;;;;;;;;;;;;;;;18.13;88.73;101554.63;20810240;28;20012;-57
2023/05/22 10:54:55;;;;;;;;;;;;;;;18.17;87.70;101531.75;20811159;28;19925;-57
2023/05/22 11:05:24;;;;;;;;;;;;;;;18.11;90.97;101525.09;20811786;28;19929;-58
2023/05/22 11:15:46;;;;;;;;;;;;;;;18.14;90.18;101522.28;20804934;28;20031;-56
2023/05/22 11:26:16;;;;;;;;;;;;;;;18.19;90.10;101498.47;20800964;28;20396;-58
2023/05/22 11:36:37;;;;;;;;;;;;;;;18.34;91.10;101495.06;20819997;28;20252;-56
2023/05/22 11:46:59;;;;;;;;;;;;;;;18.59;90.37;101483.28;20802434;28;19934;-56
2023/05/22 11:57:21;;;;;;;;;;;;;;;18.61;89.96;101484.03;20809914;28;19925;-56
2023/05/22 12:07:43;;;;;;;;;;;;;;;18.70;89.37;101480.94;20804595;28;20371;-57
2023/05/22 12:18:08;;;;;;;;;;;;;;;18.84;88.25;101481.03;20805026;28;19960;-56
2023/05/22 12:28:31;;;;;;;;;;;;;;;18.99;86.04;101480.22;20792396;28;20364;-57
2023/05/22 12:38:54;;;;;;;;;;;;;;;19.10;85.83;101463.88;20802389;28;20000;-56
2023/05/22 12:49:15;;;;;;;;;;;;;;;19.18;86.89;101471.31;20787266;28;19940;-57
2023/05/22 12:59:37;;;;;;;;;;;;;;;19.34;84.09;101462.56;20806607;28;19929;-56
2023/05/22 13:09:58;;;;;;;;;;;;;;;19.49;85.33;101460.84;20793846;28;19929;-55
2023/05/22 13:20:20;;;;;;;;;;;;;;;19.52;83.85;101450.19;20801217;28;19933;-57
2023/05/22 13:30:41;;;;;;;;;;;;;;;19.69;84.78;101460.53;20781482;28;19925;-57
2023/05/22 13:41:03;;;;;;;;;;;;;;;19.89;82.35;101445.31;20806086;28;19931;-56
2023/05/22 13:51:24;;;;;;;;;;;;;;;20.05;87.15;101438.22;20791153;28;20341;-56
2023/05/22 14:01:46;;;;;;;;;;;;;;;20.08;83.30;101426.69;20794611;28;19937;-56
2023/05/22 14:12:07;;;;;;;;;;;;;;;20.08;83.20;101417.94;20796452;28;19944;-56
2023/05/22 14:22:28;;;;;;;;;;;;;;;20.24;83.26;101424.84;20809541;28;19933;-57
2023/05/22 14:32:56;;;;;;;;;;;;;;;20.29;82.11;101428.03;20813352;28;19971;-56
2023/05/22 14:43:18;;;;;;;;;;;;;;;20.28;82.34;101421.13;20804132;28;19936;-57
2023/05/22 14:53:39;;;;;;;;;;;;;;;20.55;80.93;101405.41;20807668;28;20138;-56
2023/05/22 15:04:01;;;;;;;;;;;;;;;20.49;82.80;101401.38;20816632;28;19925;-57
2023/05/22 15:14:22;;;;;;;;;;;;;;;20.69;81.51;101411.50;20810714;28;19925;-57
2023/05/22 15:24:45;;;;;;;;;;;;;;;20.71;78.76;101404.38;20805660;28;20035;-56
2023/05/22 15:35:09;;;;;;;;;;;;;;;20.56;79.53;101394.81;20812534;28;19930;-57
2023/05/22 15:45:31;;;;;;;;;;;;;;;20.60;77.82;101387.59;20803012;28;19929;-57
2023/05/22 15:55:53;;;;;;;;;;;;;;;20.74;78.32;101379.66;20801502;28;19929;-57
2023/05/22 16:06:14;;;;;;;;;;;;;;;20.74;79.66;101380.50;20803989;28;19936;-57
2023/05/22 16:16:36;;;;;;;;;;;;;;;21.08;78.46;101404.72;20797282;28;20008;-57
2023/05/22 16:26:58;;;;;;;;;;;;;;;21.56;76.35;101389.16;20811780;28;19932;-56
2023/05/22 16:37:19;;;;;;;;;;;;;;;21.83;75.61;101404.94;20796596;28;19932;-57
2023/05/22 16:47:41;;;;;;;;;;;;;;;21.69;75.84;101415.53;20795115;28;19940;-56
2023/05/22 16:58:02;;;;;;;;;;;;;;;21.91;74.61;101429.00;20796771;28;19964;-56
2023/05/22 17:08:27;;;;;;;;;;;;;;;22.00;74.25;101428.38;20783179;28;19929;-56
2023/05/22 17:18:48;;;;;;;;;;;;;;;22.01;75.10;101422.19;20797877;28;19926;-56
2023/05/22 17:29:10;;;;;;;;;;;;;;;21.90;74.23;101422.06;20780208;28;20371;-55
2023/05/22 17:39:31;;;;;;;;;;;;;;;21.72;76.33;101417.97;20786683;28;19932;-56
2023/05/22 17:49:52;;;;;;;;;;;;;;;21.38;75.88;101444.84;20812159;28;19929;-56
2023/05/22 18:00:15;;;;;;;;;;;;;;;21.05;78.11;101445.22;20805714;28;19930;-56
2023/05/22 18:10:37;;;;;;;;;;;;;;;20.89;77.48;101441.84;20816679;28;19925;-57
2023/05/22 18:20:59;;;;;;;;;;;;;;;20.70;77.24;101439.53;20810567;28;19959;-57
2023/05/22 18:31:21;;;;;;;;;;;;;;;20.58;78.79;101458.69;20801936;28;19945;-57
2023/05/22 18:41:42;;;;;;;;;;;;;;;20.38;79.00;101460.84;20811210;28;19944;-57
2023/05/22 18:52:04;;;;;;;;;;;;;;;20.28;77.76;101460.56;20799621;28;19932;-56
2023/05/22 19:02:25;;;;;;;;;;;;;;;20.08;79.28;101486.28;20790514;28;19925;-57
2023/05/22 19:12:47;;;;;;;;;;;;;;;19.93;79.97;101501.16;20806809;28;20363;-57
2023/05/22 19:23:10;;;;;;;;;;;;;;;19.72;79.45;101515.53;20790222;28;19933;-56
2023/05/22 19:33:31;;;;;;;;;;;;;;;19.35;78.13;101515.91;20802540;28;19932;-56
2023/05/22 19:43:53;;;;;;;;;;;;;;;19.10;78.13;101526.03;20803617;28;20568;-56
2023/05/22 19:54:14;;;;;;;;;;;;;;;18.87;79.31;101528.09;20804351;28;19979;-56
2023/05/22 20:04:37;;;;;;;;;;;;;;;18.66;79.79;101516.09;20798581;28;20269;-56
2023/05/22 20:14:58;;;;;;;;;;;;;;;18.54;79.93;101511.50;20816533;28;19937;-55
2023/05/22 20:25:20;;;;;;;;;;;;;;;18.37;79.66;101503.63;20813514;28;20027;-55
2023/05/22 20:35:41;;;;;;;;;;;;;;;18.26;81.19;101511.19;20789092;28;20434;-55
2023/05/22 20:46:03;;;;;;;;;;;;;;;18.02;80.09;101517.66;20798607;28;19972;-56
2023/05/22 20:56:25;;;;;;;;;;;;;;;17.79;79.85;101512.72;20793543;28;19929;-56
2023/05/22 21:06:47;;;;;;;;;;;;;;;17.46;80.38;101538.69;20798934;28;19935;-57
2023/05/22 21:17:08;;;;;;;;;;;;;;;17.16;80.16;101553.19;20798025;28;19940;-56
2023/05/22 21:27:32;;;;;;;;;;;;;;;16.85;81.11;101548.50;20812983;28;20415;-56
2023/05/22 21:37:53;;;;;;;;;;;;;;;16.67;81.21;101567.59;20792271;28;19925;-55
2023/05/22 21:48:15;;;;;;;;;;;;;;;16.56;81.45;101572.44;20796678;28;19936;-55
2023/05/22 21:58:36;;;;;;;;;;;;;;;16.50;81.76;101569.25;20790686;28;20551;-57
2023/05/22 22:08:59;;;;;;;;;;;;;;;16.34;81.53;101589.91;20794511;28;19925;-57
2023/05/22 22:19:24;;;;;;;;;;;;;;;16.35;81.10;101581.16;20802362;28;19956;-57
2023/05/22 22:29:46;;;;;;;;;;;;;;;16.30;83.05;101590.94;20799298;28;19926;-57
2023/05/22 22:40:08;;;;;;;;;;;;;;;16.01;82.16;101584.28;20807107;28;20016;-57
2023/05/22 22:50:31;;;;;;;;;;;;;;;15.94;83.83;101559.34;20806663;28;19941;-57
2023/05/22 23:00:52;;;;;;;;;;;;;;;15.96;82.81;101552.31;20809947;28;19928;-56
2023/05/22 23:11:14;;;;;;;;;;;;;;;16.04;85.94;101555.44;20816654;28;19925;-55
2023/05/22 23:21:36;;;;;;;;;;;;;;;15.96;82.71;101546.22;20816833;28;20329;-57
2023/05/22 23:31:57;;;;;;;;;;;;;;;15.94;84.06;101553.28;20802625;28;19932;-57
2023/05/22 23:42:19;;;;;;;;;;;;;;;15.96;81.99;101546.22;20806958;28;20360;-56
2023/05/22 23:52:41;;;;;;;;;;;;;;;16.10;82.72;101533.44;20811649;28;20273;-56
